Harrisville, Ohio
Current Conditions -  °F | °C
As of 3:25 PM on Thursday 27 Nov 2014 (Local Time) from KHLG Reporting Station
Light Snow Light Snow  
Wind Chill: 18°   Ceiling: 2200
Heat Index: 31°   Visibility: 1mi
Dew Point: 27°   Wind: 21mph
Humidity: 85%   Direction: 290°WNW
Pressure: 30.13"   Gusts: 25mph
Location:  40.18°N, 80.89°W
Report Text: KHLG 272025Z 29018G22KT 1SM R03/6000VP6000FT -SN BR FEW010 SCT014 OVC022 M01/M03 A3013 RMK AO2 SNB03 P0000 T10061028
Loading
Personal Weather Stations






























Interactive Weather Map New forecast layout! Learn more

10-Day Weather Forecast

Advertisements
Track Severe Weather on mobile